Amity, North Carolina
Current Conditions -  °F | °C
As of 9:55 AM on Saturday 20 Dec 2014 (Local Time) from KRUQ Reporting Station
Overcast Overcast  
Wind Chill: 39°   Ceiling: 7000
Heat Index: 39°   Visibility: 10mi
Dew Point: 29°   Wind: 3mph
Humidity: 66%   Direction: 50°NE
Pressure: 30.26"   Gusts: NA
Location:  35.7427°N, 80.712°W
Report Text: KRUQ 201455Z AUTO 05003KT 10SM OVC070 04/M02 A3026 RMK AO2 T00401019
Loading
Personal Weather Stations






























Interactive Weather Map New forecast layout! Learn more

10-Day Weather Forecast

Advertisements
Track Severe Weather on mobile